sensor_id;sensor_type;location;lat;lon;timestamp;pressure;altitude;pressure_sealevel;temperature;humidity
73171;BME280;61381;50.118;19.962;2024-02-26T00:04:28;97507.44;;;11.53;68.55
73171;BME280;61381;50.118;19.962;2024-02-26T00:09:29;97509.00;;;11.89;67.39
73171;BME280;61381;50.118;19.962;2024-02-26T00:14:31;97510.88;;;11.45;67.17
73171;BME280;61381;50.118;19.962;2024-02-26T00:19:32;97509.31;;;11.53;66.54
73171;BME280;61381;50.118;19.962;2024-02-26T00:24:33;97517.16;;;11.14;70.26
73171;BME280;61381;50.118;19.962;2024-02-26T00:29:35;97512.38;;;10.94;71.08
73171;BME280;61381;50.118;19.962;2024-02-26T00:34:36;97507.16;;;10.97;70.82
73171;BME280;61381;50.118;19.962;2024-02-26T00:39:37;97498.31;;;10.88;70.57
73171;BME280;61381;50.118;19.962;2024-02-26T00:44:39;97490.66;;;10.55;71.91
73171;BME280;61381;50.118;19.962;2024-02-26T00:49:40;97480.63;;;10.38;72.51
73171;BME280;61381;50.118;19.962;2024-02-26T00:54:40;97478.31;;;10.23;73.19
73171;BME280;61381;50.118;19.962;2024-02-26T00:59:43;97474.94;;;9.86;75.45
73171;BME280;61381;50.118;19.962;2024-02-26T01:04:43;97489.94;;;10.18;73.78
73171;BME280;61381;50.118;19.962;2024-02-26T01:09:44;97488.19;;;10.13;72.98
73171;BME280;61381;50.118;19.962;2024-02-26T01:14:47;97481.13;;;9.50;76.04
73171;BME280;61381;50.118;19.962;2024-02-26T01:19:47;97482.56;;;9.70;75.76
73171;BME280;61381;50.118;19.962;2024-02-26T01:24:48;97485.56;;;9.77;74.74
73171;BME280;61381;50.118;19.962;2024-02-26T01:29:50;97481.78;;;9.19;76.66
73171;BME280;61381;50.118;19.962;2024-02-26T01:34:51;97491.53;;;8.73;79.49
73171;BME280;61381;50.118;19.962;2024-02-26T01:39:52;97493.66;;;9.13;82.22
73171;BME280;61381;50.118;19.962;2024-02-26T01:44:54;97482.97;;;8.43;81.86
73171;BME280;61381;50.118;19.962;2024-02-26T01:49:55;97478.41;;;8.30;82.97
73171;BME280;61381;50.118;19.962;2024-02-26T01:54:56;97485.44;;;8.39;82.66
73171;BME280;61381;50.118;19.962;2024-02-26T01:59:58;97486.06;;;9.06;80.47
73171;BME280;61381;50.118;19.962;2024-02-26T02:05:00;97492.38;;;9.24;80.79
73171;BME280;61381;50.118;19.962;2024-02-26T02:10:01;97485.66;;;9.49;75.65
73171;BME280;61381;50.118;19.962;2024-02-26T02:15:03;97486.00;;;9.34;79.55
73171;BME280;61381;50.118;19.962;2024-02-26T02:20:08;97479.47;;;9.40;78.97
73171;BME280;61381;50.118;19.962;2024-02-26T02:25:10;97483.50;;;9.15;79.24
73171;BME280;61381;50.118;19.962;2024-02-26T02:30:12;97495.47;;;8.89;77.00
73171;BME280;61381;50.118;19.962;2024-02-26T02:35:13;97485.69;;;8.71;77.76
73171;BME280;61381;50.118;19.962;2024-02-26T02:40:15;97489.22;;;8.94;77.97
73171;BME280;61381;50.118;19.962;2024-02-26T02:45:16;97491.13;;;8.66;79.67
73171;BME280;61381;50.118;19.962;2024-02-26T02:50:17;97495.44;;;8.01;79.84
73171;BME280;61381;50.118;19.962;2024-02-26T02:55:19;97483.53;;;8.12;81.75
73171;BME280;61381;50.118;19.962;2024-02-26T03:00:20;97484.56;;;7.97;80.64
73171;BME280;61381;50.118;19.962;2024-02-26T03:05:21;97487.44;;;9.03;79.33
73171;BME280;61381;50.118;19.962;2024-02-26T03:10:23;97495.16;;;9.05;77.30
73171;BME280;61381;50.118;19.962;2024-02-26T03:15:24;97494.50;;;8.71;77.56
73171;BME280;61381;50.118;19.962;2024-02-26T03:20:25;97480.84;;;8.12;77.81
73171;BME280;61381;50.118;19.962;2024-02-26T03:25:27;97488.28;;;8.29;78.57
73171;BME280;61381;50.118;19.962;2024-02-26T03:30:28;97479.75;;;7.80;82.09
73171;BME280;61381;50.118;19.962;2024-02-26T03:35:29;97471.47;;;7.82;82.37
73171;BME280;61381;50.118;19.962;2024-02-26T03:40:31;97477.97;;;8.55;83.72
73171;BME280;61381;50.118;19.962;2024-02-26T03:45:32;97465.00;;;8.35;79.43
73171;BME280;61381;50.118;19.962;2024-02-26T03:50:33;97460.19;;;8.51;78.71
73171;BME280;61381;50.118;19.962;2024-02-26T03:55:35;97461.25;;;8.50;78.62
73171;BME280;61381;50.118;19.962;2024-02-26T04:00:36;97448.56;;;8.28;79.16
73171;BME280;61381;50.118;19.962;2024-02-26T04:05:37;97440.41;;;7.58;79.68
73171;BME280;61381;50.118;19.962;2024-02-26T04:10:40;97432.41;;;7.91;78.72
73171;BME280;61381;50.118;19.962;2024-02-26T04:15:40;97447.16;;;7.70;78.47
73171;BME280;61381;50.118;19.962;2024-02-26T04:20:41;97445.72;;;7.39;79.30
73171;BME280;61381;50.118;19.962;2024-02-26T04:25:44;97436.78;;;7.68;82.29
73171;BME280;61381;50.118;19.962;2024-02-26T04:30:44;97437.81;;;7.86;78.47
73171;BME280;61381;50.118;19.962;2024-02-26T04:35:45;97438.47;;;6.88;84.12
73171;BME280;61381;50.118;19.962;2024-02-26T04:40:48;97445.97;;;7.43;80.31
73171;BME280;61381;50.118;19.962;2024-02-26T04:45:48;97438.19;;;6.89;84.12
73171;BME280;61381;50.118;19.962;2024-02-26T04:50:49;97434.69;;;7.98;80.54
73171;BME280;61381;50.118;19.962;2024-02-26T04:55:51;97437.25;;;7.70;81.58
73171;BME280;61381;50.118;19.962;2024-02-26T05:00:52;97442.16;;;7.82;78.29
73171;BME280;61381;50.118;19.962;2024-02-26T05:05:53;97434.44;;;7.09;81.13
73171;BME280;61381;50.118;19.962;2024-02-26T05:10:55;97430.63;;;8.00;80.33
73171;BME280;61381;50.118;19.962;2024-02-26T05:15:56;97427.47;;;7.65;77.76
73171;BME280;61381;50.118;19.962;2024-02-26T05:20:57;97430.59;;;7.86;77.97
73171;BME280;61381;50.118;19.962;2024-02-26T05:25:59;97431.78;;;7.47;78.78
73171;BME280;61381;50.118;19.962;2024-02-26T05:31:00;97442.00;;;7.02;82.88
73171;BME280;61381;50.118;19.962;2024-02-26T05:36:01;97439.00;;;7.80;79.57
73171;BME280;61381;50.118;19.962;2024-02-26T05:41:04;97451.47;;;7.98;80.47
73171;BME280;61381;50.118;19.962;2024-02-26T05:46:05;97460.66;;;7.92;77.91
73171;BME280;61381;50.118;19.962;2024-02-26T05:51:05;97469.56;;;7.49;78.16
73171;BME280;61381;50.118;19.962;2024-02-26T05:56:08;97465.31;;;7.48;81.87
73171;BME280;61381;50.118;19.962;2024-02-26T06:01:09;97469.41;;;8.12;84.83
73171;BME280;61381;50.118;19.962;2024-02-26T06:06:10;97478.00;;;8.09;76.29
73171;BME280;61381;50.118;19.962;2024-02-26T06:11:12;97471.50;;;7.63;82.56
73171;BME280;61381;50.118;19.962;2024-02-26T06:16:13;97496.94;;;7.17;80.58
73171;BME280;61381;50.118;19.962;2024-02-26T06:21:14;97477.47;;;6.97;88.52
73171;BME280;61381;50.118;19.962;2024-02-26T06:26:16;97495.47;;;8.89;78.14
73171;BME280;61381;50.118;19.962;2024-02-26T06:31:17;97494.19;;;9.01;78.83
73171;BME280;61381;50.118;19.962;2024-02-26T06:36:18;97494.81;;;8.70;82.44
73171;BME280;61381;50.118;19.962;2024-02-26T06:41:20;97501.47;;;9.23;76.82
73171;BME280;61381;50.118;19.962;2024-02-26T06:46:21;97504.38;;;8.99;78.22
73171;BME280;61381;50.118;19.962;2024-02-26T06:51:22;97504.59;;;9.53;78.37
73171;BME280;61381;50.118;19.962;2024-02-26T06:56:24;97507.44;;;10.24;76.29
73171;BME280;61381;50.118;19.962;2024-02-26T07:01:25;97501.44;;;10.18;76.69
73171;BME280;61381;50.118;19.962;2024-02-26T07:06:26;97493.00;;;11.05;74.48
73171;BME280;61381;50.118;19.962;2024-02-26T07:11:28;97511.97;;;11.27;73.31
73171;BME280;61381;50.118;19.962;2024-02-26T07:16:29;97517.38;;;11.44;70.65
73171;BME280;61381;50.118;19.962;2024-02-26T07:21:30;97518.50;;;11.78;71.96
73171;BME280;61381;50.118;19.962;2024-02-26T07:26:32;97527.28;;;12.40;69.30
73171;BME280;61381;50.118;19.962;2024-02-26T07:31:33;97510.31;;;12.01;69.99
73171;BME280;61381;50.118;19.962;2024-02-26T07:36:34;97519.75;;;13.40;65.95
73171;BME280;61381;50.118;19.962;2024-02-26T07:41:36;97526.00;;;13.53;66.41
73171;BME280;61381;50.118;19.962;2024-02-26T07:46:37;97520.88;;;13.60;64.45
73171;BME280;61381;50.118;19.962;2024-02-26T07:51:38;97518.50;;;13.37;65.81
73171;BME280;61381;50.118;19.962;2024-02-26T07:56:40;97534.31;;;14.36;63.57
73171;BME280;61381;50.118;19.962;2024-02-26T08:01:41;97547.22;;;14.63;61.28
73171;BME280;61381;50.118;19.962;2024-02-26T08:06:42;97537.59;;;13.66;63.24
73171;BME280;61381;50.118;19.962;2024-02-26T08:11:44;97539.13;;;13.76;65.45
73171;BME280;61381;50.118;19.962;2024-02-26T08:16:45;97544.41;;;14.26;62.84
73171;BME280;61381;50.118;19.962;2024-02-26T08:21:46;97537.09;;;14.27;61.72
73171;BME280;61381;50.118;19.962;2024-02-26T08:26:48;97531.91;;;13.88;64.20
73171;BME280;61381;50.118;19.962;2024-02-26T08:31:49;97546.13;;;13.47;66.36
73171;BME280;61381;50.118;19.962;2024-02-26T08:36:50;97528.81;;;13.99;65.62
73171;BME280;61381;50.118;19.962;2024-02-26T08:41:52;97540.28;;;14.08;65.32
73171;BME280;61381;50.118;19.962;2024-02-26T08:46:53;97535.72;;;13.66;68.12
73171;BME280;61381;50.118;19.962;2024-02-26T08:51:54;97538.50;;;14.45;65.65
73171;BME280;61381;50.118;19.962;2024-02-26T08:56:56;97527.16;;;14.06;66.82
73171;BME280;61381;50.118;19.962;2024-02-26T09:01:57;97533.72;;;14.63;66.55
73171;BME280;61381;50.118;19.962;2024-02-26T09:06:58;97526.13;;;14.66;66.32
73171;BME280;61381;50.118;19.962;2024-02-26T09:12:01;97532.06;;;15.98;61.81
73171;BME280;61381;50.118;19.962;2024-02-26T09:17:03;97526.09;;;15.52;63.39
73171;BME280;61381;50.118;19.962;2024-02-26T09:22:04;97543.97;;;16.54;60.03
73171;BME280;61381;50.118;19.962;2024-02-26T09:27:06;97541.66;;;15.96;61.04
73171;BME280;61381;50.118;19.962;2024-02-26T09:32:07;97529.44;;;15.61;61.97
73171;BME280;61381;50.118;19.962;2024-02-26T09:37:08;97538.06;;;15.92;61.56
73171;BME280;61381;50.118;19.962;2024-02-26T09:42:11;97541.44;;;15.89;62.21
73171;BME280;61381;50.118;19.962;2024-02-26T09:47:14;97551.38;;;16.13;60.43
73171;BME280;61381;50.118;19.962;2024-02-26T09:52:16;97554.59;;;16.18;61.54
73171;BME280;61381;50.118;19.962;2024-02-26T09:57:18;97558.19;;;16.51;60.26
73171;BME280;61381;50.118;19.962;2024-02-26T10:02:20;97543.50;;;16.36;60.66
73171;BME280;61381;50.118;19.962;2024-02-26T10:07:21;97537.88;;;17.21;58.65
73171;BME280;61381;50.118;19.962;2024-02-26T10:12:26;97538.16;;;17.51;58.32
73171;BME280;61381;50.118;19.962;2024-02-26T10:17:28;97531.19;;;16.99;58.26
73171;BME280;61381;50.118;19.962;2024-02-26T10:22:29;97529.25;;;16.83;59.64
73171;BME280;61381;50.118;19.962;2024-02-26T10:27:31;97524.47;;;17.44;58.51
73171;BME280;61381;50.118;19.962;2024-02-26T10:32:32;97536.84;;;17.80;57.68
73171;BME280;61381;50.118;19.962;2024-02-26T10:37:34;97539.09;;;18.33;55.46
73171;BME280;61381;50.118;19.962;2024-02-26T10:42:36;97540.63;;;20.48;49.77
73171;BME280;61381;50.118;19.962;2024-02-26T10:47:37;97527.91;;;19.58;50.09
73171;BME280;61381;50.118;19.962;2024-02-26T10:52:39;97522.19;;;18.86;52.08
73171;BME280;61381;50.118;19.962;2024-02-26T10:57:44;97517.53;;;19.67;50.35
73171;BME280;61381;50.118;19.962;2024-02-26T11:02:45;97524.97;;;20.38;48.80
73171;BME280;61381;50.118;19.962;2024-02-26T11:07:48;97516.25;;;19.57;49.92
73171;BME280;61381;50.118;19.962;2024-02-26T11:12:52;97515.25;;;20.37;49.01
73171;BME280;61381;50.118;19.962;2024-02-26T11:17:55;97502.38;;;19.36;50.81
73171;BME280;61381;50.118;19.962;2024-02-26T11:22:56;97506.50;;;19.53;49.05
73171;BME280;61381;50.118;19.962;2024-02-26T11:28:01;97499.34;;;20.02;48.41
73171;BME280;61381;50.118;19.962;2024-02-26T11:33:06;97507.00;;;21.82;43.69
73171;BME280;61381;50.118;19.962;2024-02-26T11:38:07;97514.00;;;21.76;42.55
73171;BME280;61381;50.118;19.962;2024-02-26T11:43:09;97507.13;;;22.22;43.11
73171;BME280;61381;50.118;19.962;2024-02-26T11:48:11;97502.53;;;22.40;40.46
73171;BME280;61381;50.118;19.962;2024-02-26T11:53:25;97500.66;;;21.01;43.64
73171;BME280;61381;50.118;19.962;2024-02-26T11:58:31;97502.78;;;21.99;42.52
73171;BME280;61381;50.118;19.962;2024-02-26T12:03:31;97503.00;;;21.62;42.61
73171;BME280;61381;50.118;19.962;2024-02-26T12:08:34;97498.69;;;21.53;42.69
73171;BME280;61381;50.118;19.962;2024-02-26T12:13:37;97496.91;;;20.68;44.83
73171;BME280;61381;50.118;19.962;2024-02-26T12:18:38;97497.78;;;21.35;44.23
73171;BME280;61381;50.118;19.962;2024-02-26T12:23:39;97498.91;;;22.04;42.00
73171;BME280;61381;50.118;19.962;2024-02-26T12:28:41;97492.03;;;23.22;39.27
73171;BME280;61381;50.118;19.962;2024-02-26T12:33:42;97496.31;;;22.65;39.66
73171;BME280;61381;50.118;19.962;2024-02-26T12:38:43;97494.72;;;22.42;40.19
73171;BME280;61381;50.118;19.962;2024-02-26T12:43:46;97508.03;;;23.16;39.64
73171;BME280;61381;50.118;19.962;2024-02-26T12:48:46;97502.97;;;23.11;39.83
73171;BME280;61381;50.118;19.962;2024-02-26T12:53:48;97491.13;;;22.20;41.69
73171;BME280;61381;50.118;19.962;2024-02-26T12:58:51;97497.84;;;22.66;40.83
73171;BME280;61381;50.118;19.962;2024-02-26T13:03:53;97490.34;;;22.23;41.29
73171;BME280;61381;50.118;19.962;2024-02-26T13:08:56;97497.47;;;23.04;40.60
73171;BME280;61381;50.118;19.962;2024-02-26T13:13:58;97498.63;;;23.31;39.75
73171;BME280;61381;50.118;19.962;2024-02-26T13:19:08;97495.50;;;23.33;40.42
73171;BME280;61381;50.118;19.962;2024-02-26T13:24:12;97499.44;;;23.14;39.78
73171;BME280;61381;50.118;19.962;2024-02-26T13:29:18;97502.53;;;22.51;41.34
73171;BME280;61381;50.118;19.962;2024-02-26T13:34:25;97500.22;;;23.22;39.33
73171;BME280;61381;50.118;19.962;2024-02-26T13:39:27;97494.75;;;22.82;40.50
73171;BME280;61381;50.118;19.962;2024-02-26T13:44:30;97499.41;;;22.49;41.70
73171;BME280;61381;50.118;19.962;2024-02-26T13:49:31;97499.81;;;23.05;40.86
73171;BME280;61381;50.118;19.962;2024-02-26T13:54:31;97499.78;;;22.48;42.37
73171;BME280;61381;50.118;19.962;2024-02-26T13:59:34;97501.31;;;22.34;43.61
73171;BME280;61381;50.118;19.962;2024-02-26T14:04:36;97514.38;;;21.78;43.92
73171;BME280;61381;50.118;19.962;2024-02-26T14:09:36;97504.69;;;21.88;43.15
73171;BME280;61381;50.118;19.962;2024-02-26T14:14:39;97502.59;;;21.56;43.78
73171;BME280;61381;50.118;19.962;2024-02-26T14:19:39;97508.69;;;22.23;43.30
73171;BME280;61381;50.118;19.962;2024-02-26T14:24:40;97496.13;;;21.97;43.34
73171;BME280;61381;50.118;19.962;2024-02-26T14:29:43;97497.50;;;21.51;44.85
73171;BME280;61381;50.118;19.962;2024-02-26T14:34:44;97495.66;;;21.07;46.07
73171;BME280;61381;50.118;19.962;2024-02-26T14:39:44;97506.84;;;20.98;46.71
73171;BME280;61381;50.118;19.962;2024-02-26T14:44:47;97516.66;;;21.06;46.96
73171;BME280;61381;50.118;19.962;2024-02-26T14:49:48;97515.22;;;20.75;47.19
73171;BME280;61381;50.118;19.962;2024-02-26T14:54:49;97515.97;;;21.16;46.85
73171;BME280;61381;50.118;19.962;2024-02-26T14:59:51;97518.31;;;21.22;46.90
73171;BME280;61381;50.118;19.962;2024-02-26T15:04:52;97508.00;;;20.93;46.96
73171;BME280;61381;50.118;19.962;2024-02-26T15:09:53;97515.44;;;20.55;48.42
73171;BME280;61381;50.118;19.962;2024-02-26T15:14:55;97515.13;;;20.64;48.36
73171;BME280;61381;50.118;19.962;2024-02-26T15:19:56;97516.75;;;20.31;50.02
73171;BME280;61381;50.118;19.962;2024-02-26T15:24:57;97528.00;;;20.29;49.82
73171;BME280;61381;50.118;19.962;2024-02-26T15:29:59;97524.28;;;20.45;49.90
73171;BME280;61381;50.118;19.962;2024-02-26T15:35:00;97527.84;;;20.15;50.22
73171;BME280;61381;50.118;19.962;2024-02-26T15:40:01;97522.16;;;19.36;52.49
73171;BME280;61381;50.118;19.962;2024-02-26T15:45:04;97532.38;;;19.73;51.48
73171;BME280;61381;50.118;19.962;2024-02-26T15:50:05;97525.19;;;19.58;51.83
73171;BME280;61381;50.118;19.962;2024-02-26T15:55:06;97539.91;;;19.03;53.58
73171;BME280;61381;50.118;19.962;2024-02-26T16:00:10;97532.03;;;18.95;53.97
73171;BME280;61381;50.118;19.962;2024-02-26T16:05:11;97539.41;;;18.51;55.30
73171;BME280;61381;50.118;19.962;2024-02-26T16:10:12;97544.88;;;18.32;55.87
73171;BME280;61381;50.118;19.962;2024-02-26T16:15:15;97541.22;;;18.24;56.29
73171;BME280;61381;50.118;19.962;2024-02-26T16:20:17;97541.94;;;18.02;57.02
73171;BME280;61381;50.118;19.962;2024-02-26T16:25:18;97544.47;;;17.75;58.00
73171;BME280;61381;50.118;19.962;2024-02-26T16:30:20;97552.72;;;17.62;58.84
73171;BME280;61381;50.118;19.962;2024-02-26T16:35:21;97564.38;;;17.47;59.14
73171;BME280;61381;50.118;19.962;2024-02-26T16:40:22;97561.38;;;17.01;60.58
73171;BME280;61381;50.118;19.962;2024-02-26T16:45:24;97555.06;;;16.65;62.53
73171;BME280;61381;50.118;19.962;2024-02-26T16:50:25;97554.59;;;16.91;61.63
73171;BME280;61381;50.118;19.962;2024-02-26T16:55:26;97553.97;;;16.37;63.56
73171;BME280;61381;50.118;19.962;2024-02-26T17:00:28;97562.84;;;16.38;63.89
73171;BME280;61381;50.118;19.962;2024-02-26T17:05:29;97575.16;;;16.07;64.92
73171;BME280;61381;50.118;19.962;2024-02-26T17:10:30;97569.25;;;16.17;64.21
73171;BME280;61381;50.118;19.962;2024-02-26T17:15:32;97578.22;;;16.21;64.38
73171;BME280;61381;50.118;19.962;2024-02-26T17:20:33;97584.28;;;16.02;64.50
73171;BME280;61381;50.118;19.962;2024-02-26T17:25:35;97594.06;;;16.07;64.67
73171;BME280;61381;50.118;19.962;2024-02-26T17:30:38;97588.66;;;16.07;64.44
73171;BME280;61381;50.118;19.962;2024-02-26T17:35:39;97594.53;;;15.97;64.37
73171;BME280;61381;50.118;19.962;2024-02-26T17:40:39;97597.44;;;16.04;63.96
73171;BME280;61381;50.118;19.962;2024-02-26T17:45:42;97597.09;;;16.05;64.18
73171;BME280;61381;50.118;19.962;2024-02-26T17:50:42;97603.31;;;15.94;64.25
73171;BME280;61381;50.118;19.962;2024-02-26T17:55:43;97610.53;;;15.90;64.34
73171;BME280;61381;50.118;19.962;2024-02-26T18:00:46;97612.91;;;15.79;64.87
73171;BME280;61381;50.118;19.962;2024-02-26T18:05:47;97614.41;;;15.39;66.22
73171;BME280;61381;50.118;19.962;2024-02-26T18:10:48;97614.50;;;15.43;66.17
73171;BME280;61381;50.118;19.962;2024-02-26T18:15:50;97623.72;;;15.29;67.19
73171;BME280;61381;50.118;19.962;2024-02-26T18:20:51;97636.84;;;15.06;67.76
73171;BME280;61381;50.118;19.962;2024-02-26T18:25:52;97638.19;;;15.12;67.73
73171;BME280;61381;50.118;19.962;2024-02-26T18:30:54;97631.84;;;14.84;68.99
73171;BME280;61381;50.118;19.962;2024-02-26T18:35:55;97646.00;;;14.80;69.49
73171;BME280;61381;50.118;19.962;2024-02-26T18:40:55;97647.56;;;14.82;69.24
73171;BME280;61381;50.118;19.962;2024-02-26T18:45:58;97645.66;;;14.49;70.83
73171;BME280;61381;50.118;19.962;2024-02-26T18:50:58;97651.44;;;14.17;71.20
73171;BME280;61381;50.118;19.962;2024-02-26T18:55:59;97655.69;;;13.67;73.46
73171;BME280;61381;50.118;19.962;2024-02-26T19:01:02;97662.53;;;13.65;74.37
73171;BME280;61381;50.118;19.962;2024-02-26T19:06:03;97669.78;;;13.73;74.39
73171;BME280;61381;50.118;19.962;2024-02-26T19:11:09;97668.19;;;14.02;72.88
73171;BME280;61381;50.118;19.962;2024-02-26T19:16:12;97689.59;;;13.98;73.30
73171;BME280;61381;50.118;19.962;2024-02-26T19:21:12;97698.78;;;13.97;72.46
73171;BME280;61381;50.118;19.962;2024-02-26T19:26:13;97705.81;;;13.89;73.85
73171;BME280;61381;50.118;19.962;2024-02-26T19:31:16;97714.75;;;13.25;75.99
73171;BME280;61381;50.118;19.962;2024-02-26T19:36:17;97713.09;;;13.89;72.86
73171;BME280;61381;50.118;19.962;2024-02-26T19:41:17;97710.28;;;13.77;74.91
73171;BME280;61381;50.118;19.962;2024-02-26T19:46:20;97720.53;;;13.92;73.79
73171;BME280;61381;50.118;19.962;2024-02-26T19:51:21;97725.19;;;13.74;74.88
73171;BME280;61381;50.118;19.962;2024-02-26T19:56:21;97725.03;;;13.70;75.09
73171;BME280;61381;50.118;19.962;2024-02-26T20:01:24;97729.06;;;13.94;73.92
73171;BME280;61381;50.118;19.962;2024-02-26T20:06:25;97727.56;;;14.05;73.34
73171;BME280;61381;50.118;19.962;2024-02-26T20:11:26;97729.44;;;14.14;75.27
73171;BME280;61381;50.118;19.962;2024-02-26T20:16:28;97718.00;;;14.38;73.52
73171;BME280;61381;50.118;19.962;2024-02-26T20:21:31;97725.56;;;14.44;72.90
73171;BME280;61381;50.118;19.962;2024-02-26T20:26:34;97743.06;;;14.80;71.68
73171;BME280;61381;50.118;19.962;2024-02-26T20:31:36;97740.28;;;14.89;71.51
73171;BME280;61381;50.118;19.962;2024-02-26T20:36:37;97745.00;;;15.13;69.34
73171;BME280;61381;50.118;19.962;2024-02-26T20:41:38;97749.38;;;14.85;70.65
73171;BME280;61381;50.118;19.962;2024-02-26T20:46:41;97757.97;;;15.32;69.21
73171;BME280;61381;50.118;19.962;2024-02-26T20:51:42;97756.16;;;14.70;71.52
73171;BME280;61381;50.118;19.962;2024-02-26T20:56:43;97770.03;;;14.59;71.62
73171;BME280;61381;50.118;19.962;2024-02-26T21:01:46;97760.88;;;14.94;70.56
73171;BME280;61381;50.118;19.962;2024-02-26T21:06:49;97773.81;;;14.58;71.74
73171;BME280;61381;50.118;19.962;2024-02-26T21:11:51;97781.03;;;14.75;70.86
73171;BME280;61381;50.118;19.962;2024-02-26T21:16:54;97788.50;;;14.70;71.45
73171;BME280;61381;50.118;19.962;2024-02-26T21:21:55;97792.53;;;14.85;69.96
73171;BME280;61381;50.118;19.962;2024-02-26T21:26:55;97794.94;;;14.26;72.61
73171;BME280;61381;50.118;19.962;2024-02-26T21:31:58;97791.84;;;14.16;72.30
73171;BME280;61381;50.118;19.962;2024-02-26T21:36:58;97800.09;;;14.11;72.98
73171;BME280;61381;50.118;19.962;2024-02-26T21:41:59;97799.41;;;14.22;73.38
73171;BME280;61381;50.118;19.962;2024-02-26T21:47:02;97804.78;;;13.93;73.44
73171;BME280;61381;50.118;19.962;2024-02-26T21:52:03;97812.56;;;13.85;73.58
73171;BME280;61381;50.118;19.962;2024-02-26T21:57:04;97803.03;;;13.41;75.17
73171;BME280;61381;50.118;19.962;2024-02-26T22:02:06;97798.78;;;12.87;77.91
73171;BME280;61381;50.118;19.962;2024-02-26T22:07:07;97808.25;;;13.11;77.08
73171;BME280;61381;50.118;19.962;2024-02-26T22:12:08;97811.72;;;12.94;76.83
73171;BME280;61381;50.118;19.962;2024-02-26T22:17:10;97797.66;;;12.53;80.48
73171;BME280;61381;50.118;19.962;2024-02-26T22:22:11;97811.25;;;12.65;81.15
73171;BME280;61381;50.118;19.962;2024-02-26T22:27:12;97819.97;;;12.71;80.70
73171;BME280;61381;50.118;19.962;2024-02-26T22:32:14;97824.69;;;13.27;79.16
73171;BME280;61381;50.118;19.962;2024-02-26T22:37:15;97821.41;;;13.03;80.07
73171;BME280;61381;50.118;19.962;2024-02-26T22:42:16;97825.31;;;12.62;80.88
73171;BME280;61381;50.118;19.962;2024-02-26T22:47:18;97817.88;;;12.51;81.45
73171;BME280;61381;50.118;19.962;2024-02-26T22:52:19;97817.56;;;12.52;81.28
73171;BME280;61381;50.118;19.962;2024-02-26T22:57:20;97833.63;;;12.35;82.63
73171;BME280;61381;50.118;19.962;2024-02-26T23:02:22;97834.34;;;12.75;81.47
73171;BME280;61381;50.118;19.962;2024-02-26T23:07:23;97835.94;;;12.85;78.21
73171;BME280;61381;50.118;19.962;2024-02-26T23:12:24;97842.00;;;12.42;80.33
73171;BME280;61381;50.118;19.962;2024-02-26T23:17:26;97858.72;;;12.79;78.16
73171;BME280;61381;50.118;19.962;2024-02-26T23:22:27;97868.03;;;12.73;76.83
73171;BME280;61381;50.118;19.962;2024-02-26T23:27:29;97857.22;;;12.55;78.04
73171;BME280;61381;50.118;19.962;2024-02-26T23:32:31;97849.78;;;12.03;81.28
73171;BME280;61381;50.118;19.962;2024-02-26T23:37:32;97864.34;;;12.02;82.24
73171;BME280;61381;50.118;19.962;2024-02-26T23:42:33;97855.00;;;12.00;81.81
73171;BME280;61381;50.118;19.962;2024-02-26T23:47:35;97870.22;;;12.13;83.60
73171;BME280;61381;50.118;19.962;2024-02-26T23:52:36;97868.59;;;11.81;80.04
73171;BME280;61381;50.118;19.962;2024-02-26T23:57:37;97864.44;;;11.74;80.18
